Time;durP1;ratioP1;P1;durP2;ratioP2;P2;SDS_P1;SDS_P2;PMS_P1;PMS_P2;Temp;Humidity;BMP_temperature;BMP_pressure;BME280_temperature;BME280_humidity;BME280_pressure;Samples;Min_cycle;Max_cycle;Signal;HPM_P1;HPM_P2
2023/12/18 00:01:54;;;;;;;15.93;13.47;;;;;;;1.32;100.00;100002.66;5095578;28;20200;-72
2023/12/18 00:04:22;;;;;;;16.40;13.73;;;;;;;1.27;100.00;99999.53;5095199;28;20230;-72
2023/12/18 00:06:48;;;;;;;15.87;12.83;;;;;;;1.27;100.00;99989.91;5095193;28;20200;-72
2023/12/18 00:09:14;;;;;;;19.20;14.47;;;;;;;1.20;100.00;99993.06;5095108;28;20273;-72
2023/12/18 00:11:41;;;;;;;17.03;14.27;;;;;;;1.16;100.00;99986.38;5095104;28;20216;-72
2023/12/18 00:14:07;;;;;;;14.77;13.17;;;;;;;1.17;100.00;99982.84;5095088;28;20210;-72
2023/12/18 00:16:34;;;;;;;15.73;13.30;;;;;;;1.17;100.00;99981.03;5094669;28;20204;-72
2023/12/18 00:19:00;;;;;;;17.93;14.50;;;;;;;1.20;100.00;99979.97;5094555;28;20715;-72
2023/12/18 00:21:27;;;;;;;18.30;14.67;;;;;;;1.19;100.00;99973.06;5094927;28;20204;-72
2023/12/18 00:23:53;;;;;;;18.63;14.70;;;;;;;1.21;100.00;99979.03;5094803;28;20222;-72
2023/12/18 00:26:19;;;;;;;17.37;13.60;;;;;;;1.25;100.00;99972.59;5094522;28;20700;-72
2023/12/18 00:28:46;;;;;;;18.53;14.77;;;;;;;1.14;100.00;99973.41;5094676;28;20240;-72
2023/12/18 00:31:12;;;;;;;16.43;14.63;;;;;;;1.02;100.00;99968.22;5094781;28;20566;-72
2023/12/18 00:33:39;;;;;;;18.43;14.30;;;;;;;1.08;100.00;99973.03;5094683;28;20559;-72
2023/12/18 00:36:05;;;;;;;15.67;13.47;;;;;;;0.99;100.00;99969.28;5094616;28;20200;-72
2023/12/18 00:38:32;;;;;;;17.03;14.40;;;;;;;1.03;100.00;99967.31;5094340;28;20685;-72
2023/12/18 00:40:58;;;;;;;17.60;15.07;;;;;;;1.02;100.00;99963.84;5094489;28;20224;-72
2023/12/18 00:43:25;;;;;;;19.80;16.10;;;;;;;1.09;100.00;99958.97;5094489;28;20259;-72
2023/12/18 00:45:51;;;;;;;18.77;15.13;;;;;;;1.09;100.00;99959.81;5094463;28;20214;-72
2023/12/18 00:48:17;;;;;;;17.50;15.07;;;;;;;1.08;100.00;99955.50;5094276;28;20237;-72
2023/12/18 00:50:44;;;;;;;18.97;14.80;;;;;;;1.08;100.00;99955.50;5094597;28;20220;-72
2023/12/18 00:53:10;;;;;;;16.43;14.13;;;;;;;1.13;100.00;99955.19;5094358;28;20196;-72
2023/12/18 00:55:36;;;;;;;17.17;14.30;;;;;;;1.04;100.00;99959.31;5094005;28;20743;-72
2023/12/18 00:58:03;;;;;;;17.13;14.60;;;;;;;1.04;100.00;99961.09;5094247;28;20199;-72
2023/12/18 01:00:29;;;;;;;19.10;15.03;;;;;;;1.03;100.00;99948.97;5094147;28;20223;-72
2023/12/18 01:02:55;;;;;;;16.33;13.10;;;;;;;1.05;100.00;99961.00;5093825;28;20717;-72
2023/12/18 01:05:22;;;;;;;15.23;13.07;;;;;;;1.04;100.00;99955.88;5093864;28;20212;-72
2023/12/18 01:07:48;;;;;;;15.70;13.80;;;;;;;1.06;100.00;99960.03;5093355;28;20685;-72
2023/12/18 01:10:14;;;;;;;15.77;13.53;;;;;;;1.05;100.00;99957.53;5093980;28;20228;-72
2023/12/18 01:12:41;;;;;;;16.10;13.20;;;;;;;0.98;100.00;99956.34;5093985;28;20204;-72
2023/12/18 01:15:07;;;;;;;15.63;13.10;;;;;;;0.97;100.00;99954.63;5093900;28;20200;-72
2023/12/18 01:17:34;;;;;;;16.50;13.90;;;;;;;0.99;100.00;99952.75;5093975;28;20206;-72
2023/12/18 01:20:00;;;;;;;18.27;13.77;;;;;;;0.98;100.00;99957.16;5094533;28;20227;-72
2023/12/18 01:22:26;;;;;;;16.30;12.37;;;;;;;0.99;100.00;99950.13;5093917;28;20215;-72
2023/12/18 01:24:53;;;;;;;14.70;12.57;;;;;;;0.96;100.00;99952.97;5093442;28;20227;-72
2023/12/18 01:27:19;;;;;;;16.20;12.63;;;;;;;0.91;100.00;99950.72;5093821;28;20229;-72
2023/12/18 01:29:45;;;;;;;15.27;12.40;;;;;;;0.93;100.00;99953.19;5093672;28;20231;-72
2023/12/18 01:32:12;;;;;;;14.57;13.03;;;;;;;0.95;100.00;99946.06;5093744;28;20208;-72
2023/12/18 01:34:39;;;;;;;15.80;14.17;;;;;;;0.93;100.00;99947.94;5093712;28;20226;-72
2023/12/18 01:37:05;;;;;;;15.27;12.83;;;;;;;0.92;100.00;99947.13;5093839;28;20226;-72
2023/12/18 01:39:32;;;;;;;15.07;12.83;;;;;;;0.92;100.00;99946.28;5093608;28;20235;-72
2023/12/18 01:42:00;;;;;;;15.40;13.30;;;;;;;0.97;100.00;99944.16;5093424;28;20686;-72
2023/12/18 01:44:26;;;;;;;16.80;14.03;;;;;;;0.99;100.00;99950.13;5093311;28;20254;-72
2023/12/18 01:46:53;;;;;;;16.57;13.47;;;;;;;1.03;100.00;99938.50;5093662;28;20230;-72
2023/12/18 01:49:20;;;;;;;15.10;12.50;;;;;;;1.05;100.00;99933.97;5093408;28;20314;-72
2023/12/18 01:51:47;;;;;;;15.90;13.43;;;;;;;1.03;100.00;99933.25;5093615;28;20203;-72
2023/12/18 01:54:14;;;;;;;17.63;14.03;;;;;;;1.03;100.00;99928.84;5093578;28;20206;-72
2023/12/18 01:56:42;;;;;;;16.90;13.90;;;;;;;1.04;100.00;99927.88;5093594;28;20204;-72
2023/12/18 01:59:09;;;;;;;14.87;13.17;;;;;;;1.01;100.00;99920.28;5093453;28;20234;-72
2023/12/18 02:01:36;;;;;;;16.47;14.47;;;;;;;1.02;100.00;99916.69;5093504;28;20199;-72
2023/12/18 02:04:03;;;;;;;16.43;13.80;;;;;;;0.99;100.00;99910.84;5093449;28;20220;-72
2023/12/18 02:06:30;;;;;;;18.03;14.17;;;;;;;0.95;100.00;99918.09;5093453;28;20199;-72
2023/12/18 02:08:57;;;;;;;16.43;13.47;;;;;;;0.94;100.00;99911.19;5093361;28;20204;-72
2023/12/18 02:11:24;;;;;;;17.50;13.67;;;;;;;0.87;100.00;99917.00;5093471;28;20253;-72
2023/12/18 02:13:50;;;;;;;16.40;14.07;;;;;;;0.90;100.00;99919.41;5093323;28;20246;-72
2023/12/18 02:16:17;;;;;;;15.67;13.33;;;;;;;0.92;100.00;99917.47;5093412;28;20206;-72
2023/12/18 02:18:47;;;;;;;15.97;12.53;;;;;;;0.83;100.00;99912.91;5095997;28;20559;-72
2023/12/18 02:21:19;;;;;;;16.13;13.87;;;;;;;0.74;100.00;99910.97;5097322;28;20210;-72
2023/12/18 02:23:46;;;;;;;16.13;13.77;;;;;;;0.72;100.00;99912.88;5096897;28;20204;-72
2023/12/18 02:26:13;;;;;;;15.83;13.23;;;;;;;0.74;100.00;99908.38;5097149;28;20226;-72
2023/12/18 02:28:39;;;;;;;14.63;13.00;;;;;;;0.73;100.00;99911.94;5097101;28;20203;-72
2023/12/18 02:31:08;;;;;;;16.20;13.30;;;;;;;0.88;100.00;99913.41;5097061;28;20681;-72
2023/12/18 02:33:34;;;;;;;14.93;13.33;;;;;;;0.84;100.00;99911.97;5097071;28;20207;-72
2023/12/18 02:36:02;;;;;;;15.57;13.60;;;;;;;0.76;100.00;99909.09;5097019;28;20548;-72
2023/12/18 02:38:28;;;;;;;14.10;12.37;;;;;;;0.78;100.00;99907.19;5096959;28;20207;-72
2023/12/18 02:40:55;;;;;;;15.17;12.93;;;;;;;0.83;100.00;99899.84;5096525;28;20235;-72
2023/12/18 02:43:21;;;;;;;14.30;12.30;;;;;;;0.84;100.00;99897.09;5096474;28;20686;-72
2023/12/18 02:45:47;;;;;;;14.77;13.10;;;;;;;0.86;100.00;99894.38;5097078;28;20214;-72
2023/12/18 02:48:14;;;;;;;13.40;12.00;;;;;;;0.83;100.00;99891.97;5096512;28;20218;-72
2023/12/18 02:50:40;;;;;;;14.50;12.53;;;;;;;0.83;100.00;99897.22;5096783;28;20230;-72
2023/12/18 02:53:06;;;;;;;14.80;12.60;;;;;;;0.82;100.00;99887.69;5096432;28;20215;-72
2023/12/18 02:55:33;;;;;;;15.77;13.50;;;;;;;0.80;100.00;99879.13;5096648;28;20226;-72
2023/12/18 02:58:00;;;;;;;13.43;11.97;;;;;;;0.81;100.00;99875.56;5096539;28;20208;-72
2023/12/18 03:00:27;;;;;;;15.10;12.43;;;;;;;0.76;100.00;99875.88;5096740;28;20224;-72
2023/12/18 03:02:53;;;;;;;13.80;12.37;;;;;;;0.76;100.00;99885.53;5096429;28;20211;-72
2023/12/18 03:05:19;;;;;;;14.73;12.33;;;;;;;0.78;100.00;99881.88;5096339;28;20234;-72
2023/12/18 03:07:46;;;;;;;14.90;12.20;;;;;;;0.72;100.00;99884.91;5096339;28;20207;-72
2023/12/18 03:10:12;;;;;;;13.80;12.33;;;;;;;0.68;100.00;99880.03;5096286;28;20224;-72
2023/12/18 03:12:38;;;;;;;13.93;11.33;;;;;;;0.71;100.00;99879.81;5096268;28;20215;-72
2023/12/18 03:15:05;;;;;;;15.60;12.03;;;;;;;0.67;100.00;99878.38;5096177;28;20200;-72
2023/12/18 03:17:32;;;;;;;13.73;12.33;;;;;;;0.62;100.00;99877.88;5096190;28;20229;-72
2023/12/18 03:19:58;;;;;;;13.10;11.03;;;;;;;0.69;100.00;99876.47;5095996;28;20219;-72
2023/12/18 03:22:25;;;;;;;12.47;11.03;;;;;;;0.60;100.00;99877.97;5095755;28;20243;-72
2023/12/18 03:24:51;;;;;;;11.73;10.53;;;;;;;0.68;100.00;99870.41;5095879;28;20220;-72
2023/12/18 03:27:17;;;;;;;12.10;10.53;;;;;;;0.75;100.00;99870.75;5095733;28;20206;-72
2023/12/18 03:29:44;;;;;;;12.67;10.33;;;;;;;0.69;100.00;99872.06;5095036;28;20223;-72
2023/12/18 03:32:10;;;;;;;12.80;10.93;;;;;;;0.63;100.00;99869.06;5095586;28;20239;-72
2023/12/18 03:34:36;;;;;;;13.17;10.70;;;;;;;0.60;100.00;99866.66;5095464;28;20210;-72
2023/12/18 03:37:03;;;;;;;11.73;10.53;;;;;;;0.59;100.00;99867.63;5095890;28;20204;-72
2023/12/18 03:39:29;;;;;;;15.07;10.97;;;;;;;0.55;100.00;99868.78;5095550;28;20774;-72
2023/12/18 03:41:57;;;;;;;12.63;10.67;;;;;;;0.58;100.00;99865.97;5095753;28;20204;-72
2023/12/18 03:44:23;;;;;;;12.23;10.97;;;;;;;0.61;100.00;99868.31;5095262;28;20310;-72
2023/12/18 03:46:50;;;;;;;11.53;10.33;;;;;;;0.52;100.00;99864.63;5095619;28;20210;-72
2023/12/18 03:49:16;;;;;;;14.50;10.73;;;;;;;0.54;100.00;99854.03;5095163;28;20228;-72
2023/12/18 03:51:42;;;;;;;13.70;11.13;;;;;;;0.53;100.00;99860.22;5095437;28;20200;-72
2023/12/18 03:54:09;;;;;;;13.17;11.23;;;;;;;0.57;100.00;99864.25;5095507;28;20196;-72
2023/12/18 03:56:35;;;;;;;12.10;10.37;;;;;;;0.52;100.00;99861.16;5095365;28;20204;-72
2023/12/18 03:59:01;;;;;;;12.63;10.60;;;;;;;0.49;100.00;99859.59;5095014;28;20234;-72
2023/12/18 04:01:35;;;;;;;11.90;10.27;;;;;;;0.47;100.00;99861.50;5094950;28;20204;-72
2023/12/18 04:04:01;;;;;;;13.47;9.77;;;;;;;0.49;100.00;99861.41;5095089;28;20227;-72
2023/12/18 04:06:28;;;;;;;14.20;10.40;;;;;;;0.47;100.00;99860.66;5095254;28;20200;-72
2023/12/18 04:08:54;;;;;;;12.03;10.00;;;;;;;0.50;100.00;99857.81;5094566;28;20200;-72
2023/12/18 04:11:21;;;;;;;13.00;9.60;;;;;;;0.52;100.00;99862.00;5095097;28;20203;-72
2023/12/18 04:13:48;;;;;;;12.30;10.40;;;;;;;0.52;100.00;99853.31;5095329;28;20567;-72
2023/12/18 04:16:14;;;;;;;11.10;8.97;;;;;;;0.54;100.00;99859.28;5094917;28;20208;-72
2023/12/18 04:18:41;;;;;;;11.37;10.00;;;;;;;0.54;100.00;99852.25;5094772;28;20204;-72
2023/12/18 04:21:07;;;;;;;11.50;9.57;;;;;;;0.52;100.00;99853.31;5094607;28;20210;-72
2023/12/18 04:23:34;;;;;;;10.87;9.77;;;;;;;0.53;100.00;99852.38;5094651;28;20204;-72
2023/12/18 04:26:00;;;;;;;12.10;10.00;;;;;;;0.44;100.00;99853.06;5094795;28;20226;-72
2023/12/18 04:28:27;;;;;;;10.50;9.40;;;;;;;0.39;100.00;99853.38;5094778;28;20199;-72
2023/12/18 04:30:53;;;;;;;11.17;9.50;;;;;;;0.48;100.00;99865.78;5094700;28;20227;-72
2023/12/18 04:33:19;;;;;;;11.37;9.73;;;;;;;0.43;100.00;99857.44;5094501;28;20232;-72
2023/12/18 04:35:46;;;;;;;11.63;9.90;;;;;;;0.51;100.00;99852.50;5094395;28;20200;-74
2023/12/18 04:38:12;;;;;;;10.27;8.70;;;;;;;0.36;100.00;99858.00;5094313;28;20214;-72
2023/12/18 04:40:38;;;;;;;11.43;9.23;;;;;;;0.43;100.00;99856.59;5093478;28;20230;-72
2023/12/18 04:43:05;;;;;;;10.53;9.30;;;;;;;0.43;100.00;99853.97;5094063;28;20204;-72
2023/12/18 04:45:31;;;;;;;10.67;9.10;;;;;;;0.44;100.00;99860.91;5094026;28;20227;-72
2023/12/18 04:47:57;;;;;;;12.33;9.27;;;;;;;0.46;100.00;99854.59;5094150;28;20216;-72
2023/12/18 04:50:24;;;;;;;9.67;8.73;;;;;;;0.43;100.00;99853.97;5093667;28;20272;-72
2023/12/18 04:52:50;;;;;;;11.57;8.77;;;;;;;0.40;100.00;99856.84;5094123;28;20261;-72
2023/12/18 04:55:16;;;;;;;10.07;8.97;;;;;;;0.43;100.00;99872.28;5094141;28;20201;-72
2023/12/18 04:57:43;;;;;;;9.93;8.60;;;;;;;0.38;100.00;99870.84;5093808;28;20230;-72
2023/12/18 05:00:10;;;;;;;11.77;9.30;;;;;;;0.38;100.00;99863.00;5093970;28;20348;-72
2023/12/18 05:02:37;;;;;;;10.70;8.90;;;;;;;0.32;100.00;99853.94;5093826;28;20574;-72
2023/12/18 05:05:03;;;;;;;10.03;8.80;;;;;;;0.31;100.00;99870.56;5093671;28;20227;-72
2023/12/18 05:07:30;;;;;;;10.40;8.50;;;;;;;0.28;100.00;99869.84;5093635;28;20204;-72
2023/12/18 05:09:56;;;;;;;10.23;8.57;;;;;;;0.37;100.00;99870.97;5093733;28;20220;-72
2023/12/18 05:12:23;;;;;;;9.37;8.47;;;;;;;0.30;100.00;99866.31;5093602;28;20211;-72
2023/12/18 05:14:49;;;;;;;10.23;8.97;;;;;;;0.26;100.00;99868.28;5093272;28;20670;-72
2023/12/18 05:17:15;;;;;;;10.33;8.80;;;;;;;0.25;100.00;99864.00;5093514;28;20679;-72
2023/12/18 05:19:42;;;;;;;10.73;8.37;;;;;;;0.24;100.00;99863.16;5093537;28;20732;-73
2023/12/18 05:22:08;;;;;;;10.90;9.00;;;;;;;0.27;100.00;99866.50;5093461;28;20204;-72
2023/12/18 05:24:35;;;;;;;10.07;8.57;;;;;;;0.24;100.00;99857.09;5093550;28;20314;-72
2023/12/18 05:27:01;;;;;;;10.03;9.03;;;;;;;0.28;100.00;99849.88;5093451;28;20265;-72
2023/12/18 05:29:27;;;;;;;11.03;8.97;;;;;;;0.29;100.00;99852.38;5093659;28;20224;-72
2023/12/18 05:31:54;;;;;;;9.70;8.70;;;;;;;0.29;100.00;99855.00;5093328;28;20210;-72
2023/12/18 05:34:20;;;;;;;9.73;8.70;;;;;;;0.34;100.00;99855.50;5093549;28;20204;-72
2023/12/18 05:36:46;;;;;;;9.87;8.30;;;;;;;0.28;100.00;99842.88;5093358;28;20206;-72
2023/12/18 05:39:12;;;;;;;12.70;8.73;;;;;;;0.24;100.00;99847.47;5093448;28;20237;-72
2023/12/18 05:41:39;;;;;;;11.00;8.47;;;;;;;0.33;100.00;99838.13;5093076;28;20544;-72
2023/12/18 05:44:05;;;;;;;11.00;8.23;;;;;;;0.27;100.00;99843.78;5092671;28;20204;-72
2023/12/18 05:46:31;;;;;;;9.87;8.63;;;;;;;0.26;100.00;99842.13;5093195;28;20199;-72
2023/12/18 05:48:58;;;;;;;10.50;9.20;;;;;;;0.32;100.00;99840.84;5092672;28;20235;-72
2023/12/18 05:51:25;;;;;;;11.67;8.50;;;;;;;0.37;100.00;99841.34;5093360;28;20204;-72
2023/12/18 05:53:51;;;;;;;13.53;8.83;;;;;;;0.42;100.00;99840.06;5096904;28;20207;-72
2023/12/18 05:56:17;;;;;;;12.23;8.47;;;;;;;0.42;100.00;99852.31;5097439;28;20234;-72
2023/12/18 05:58:44;;;;;;;10.33;8.40;;;;;;;0.50;100.00;99855.22;5097436;28;20200;-72
2023/12/18 06:01:10;;;;;;;11.50;8.63;;;;;;;0.51;100.00;99849.88;5097615;28;20222;-72
2023/12/18 06:03:37;;;;;;;9.80;8.23;;;;;;;0.51;100.00;99857.72;5097116;28;20203;-72
2023/12/18 06:06:03;;;;;;;10.00;8.10;;;;;;;0.49;100.00;99858.78;5096819;28;20231;-72
2023/12/18 06:08:30;;;;;;;8.57;7.67;;;;;;;0.49;100.00;99859.59;5096660;28;20203;-72
2023/12/18 06:10:56;;;;;;;10.63;8.20;;;;;;;0.49;100.00;99861.41;5096726;28;20706;-71
2023/12/18 06:13:22;;;;;;;10.30;8.87;;;;;;;0.47;100.00;99864.94;5097045;28;20200;-72
2023/12/18 06:15:48;;;;;;;9.63;7.67;;;;;;;0.46;100.00;99861.59;5096883;28;20211;-72
2023/12/18 06:18:15;;;;;;;10.07;7.80;;;;;;;0.46;100.00;99856.38;5096783;28;20211;-74
2023/12/18 06:20:41;;;;;;;10.57;7.20;;;;;;;0.50;100.00;99865.69;5096364;28;20220;-72
2023/12/18 06:23:08;;;;;;;9.07;7.63;;;;;;;0.43;100.00;99857.44;5096209;28;20667;-72
2023/12/18 06:25:34;;;;;;;9.57;7.50;;;;;;;0.44;100.00;99860.91;5096160;28;20528;-72
2023/12/18 06:28:00;;;;;;;7.67;6.87;;;;;;;0.46;100.00;99861.59;5096818;28;20208;-72
2023/12/18 06:30:27;;;;;;;7.90;6.93;;;;;;;0.46;100.00;99869.47;5096876;28;20230;-72
2023/12/18 06:32:53;;;;;;;10.00;7.53;;;;;;;0.42;100.00;99876.69;5096418;28;20204;-72
2023/12/18 06:35:19;;;;;;;10.23;7.97;;;;;;;0.43;100.00;99869.66;5096605;28;20203;-72
2023/12/18 06:37:46;;;;;;;9.27;7.80;;;;;;;0.39;100.00;99863.84;5096264;28;20204;-74
2023/12/18 06:40:12;;;;;;;9.47;7.53;;;;;;;0.33;100.00;99869.53;5096418;28;20226;-72
2023/12/18 06:42:39;;;;;;;8.20;7.33;;;;;;;0.37;100.00;99872.75;5096342;28;20212;-72
2023/12/18 06:45:06;;;;;;;10.60;7.33;;;;;;;0.38;100.00;99876.06;5095378;28;20223;-73
2023/12/18 06:47:32;;;;;;;9.10;7.20;;;;;;;0.42;100.00;99875.84;5096287;28;20280;-72
2023/12/18 06:49:58;;;;;;;8.07;7.07;;;;;;;0.41;100.00;99879.44;5096177;28;20562;-72
2023/12/18 06:52:24;;;;;;;9.50;7.60;;;;;;;0.43;100.00;99882.75;5096224;28;20207;-72
2023/12/18 06:54:51;;;;;;;10.67;7.23;;;;;;;0.37;100.00;99880.59;5096153;28;20206;-72
2023/12/18 06:57:17;;;;;;;10.13;7.53;;;;;;;0.35;100.00;99885.94;5095979;28;20206;-72
2023/12/18 06:59:43;;;;;;;11.00;7.40;;;;;;;0.32;100.00;99893.16;5095855;28;20250;-72
2023/12/18 07:02:11;;;;;;;9.27;7.27;;;;;;;0.30;100.00;99890.66;5095238;28;20207;-72
2023/12/18 07:04:37;;;;;;;8.67;7.40;;;;;;;0.27;100.00;99883.03;5094242;28;20223;-72
2023/12/18 07:07:04;;;;;;;8.00;7.17;;;;;;;0.27;100.00;99879.59;5095591;28;20243;-72
2023/12/18 07:09:30;;;;;;;10.00;8.57;;;;;;;0.30;100.00;99887.22;5095484;28;20728;-72
2023/12/18 07:11:56;;;;;;;13.07;9.00;;;;;;;0.36;100.00;99886.78;5095268;28;20663;-72
2023/12/18 07:14:23;;;;;;;11.50;7.87;;;;;;;0.35;100.00;99882.50;5095342;28;20212;-72
2023/12/18 07:16:49;;;;;;;10.53;7.80;;;;;;;0.31;100.00;99888.88;5095466;28;20671;-72
2023/12/18 07:19:16;;;;;;;12.20;8.07;;;;;;;0.28;100.00;99884.72;5095504;28;20733;-72
2023/12/18 07:21:43;;;;;;;10.50;8.17;;;;;;;0.26;100.00;99883.97;5095764;28;20215;-72
2023/12/18 07:24:09;;;;;;;11.90;7.67;;;;;;;0.24;100.00;99885.88;5095738;28;20215;-72
2023/12/18 07:26:35;;;;;;;11.23;8.23;;;;;;;0.25;100.00;99887.53;5095020;28;20231;-72
2023/12/18 07:29:02;;;;;;;9.47;7.93;;;;;;;0.33;100.00;99900.91;5094891;28;20227;-72
2023/12/18 07:31:28;;;;;;;10.93;8.47;;;;;;;0.38;100.00;99897.94;5094857;28;20200;-72
2023/12/18 07:33:54;;;;;;;10.80;8.50;;;;;;;0.37;100.00;99897.13;5095170;28;20211;-72
2023/12/18 07:36:21;;;;;;;12.30;8.43;;;;;;;0.36;100.00;99902.47;5094891;28;20200;-72
2023/12/18 07:38:48;;;;;;;10.23;8.30;;;;;;;0.38;100.00;99908.41;5094788;28;20204;-72
2023/12/18 07:41:15;;;;;;;10.83;7.53;;;;;;;0.43;100.00;99914.16;5095169;28;20204;-72
2023/12/18 07:43:41;;;;;;;11.80;7.33;;;;;;;0.54;100.00;99919.47;5095008;28;20211;-72
2023/12/18 07:46:18;;;;;;;10.23;8.00;;;;;;;0.51;100.00;99919.66;5094888;28;20219;-72
2023/12/18 07:48:47;;;;;;;9.97;7.30;;;;;;;0.49;100.00;99917.16;5094895;28;20272;-72
2023/12/18 07:51:13;;;;;;;11.93;7.57;;;;;;;0.53;100.00;99920.41;5095003;28;20208;-72
2023/12/18 07:53:40;;;;;;;10.63;7.67;;;;;;;0.60;100.00;99919.00;5094718;28;20211;-72
2023/12/18 07:56:06;;;;;;;8.50;7.43;;;;;;;0.61;100.00;99920.66;5094777;28;20206;-72
2023/12/18 07:58:33;;;;;;;10.33;7.60;;;;;;;0.70;100.00;99926.09;5094693;28;20208;-72
2023/12/18 08:01:00;;;;;;;7.60;6.83;;;;;;;0.70;100.00;99923.47;5094911;28;20228;-74
2023/12/18 08:03:27;;;;;;;9.97;8.37;;;;;;;0.67;100.00;99920.25;5095265;28;20208;-74
2023/12/18 08:05:53;;;;;;;8.77;7.70;;;;;;;0.69;100.00;99923.56;5094931;28;20231;-74
2023/12/18 08:08:20;;;;;;;8.70;7.37;;;;;;;0.62;100.00;99930.22;5094899;28;20208;-74
2023/12/18 08:10:46;;;;;;;10.90;7.60;;;;;;;0.69;100.00;99929.66;5094668;28;20227;-74
2023/12/18 08:13:12;;;;;;;11.00;7.70;;;;;;;0.73;100.00;99931.09;5095129;28;20214;-74
2023/12/18 08:15:39;;;;;;;8.67;7.53;;;;;;;0.70;100.00;99926.09;5094104;28;20200;-74
2023/12/18 08:18:06;;;;;;;9.37;7.57;;;;;;;0.79;100.00;99919.31;5094622;28;20207;-72
2023/12/18 08:20:32;;;;;;;12.33;7.90;;;;;;;0.87;100.00;99923.06;5094116;28;20224;-72
2023/12/18 08:22:58;;;;;;;11.10;8.30;;;;;;;0.89;100.00;99917.72;5094655;28;20204;-72
2023/12/18 08:25:25;;;;;;;12.03;8.03;;;;;;;1.02;100.00;99911.44;5094655;28;20226;-72
2023/12/18 08:27:52;;;;;;;9.40;7.10;;;;;;;1.00;100.00;99917.75;5094580;28;20261;-72
2023/12/18 08:30:18;;;;;;;10.17;8.33;;;;;;;1.00;100.00;99902.03;5094614;28;20231;-74
2023/12/18 08:32:44;;;;;;;10.63;8.67;;;;;;;1.07;100.00;99905.88;5094475;28;20298;-74
2023/12/18 08:35:11;;;;;;;11.77;8.53;;;;;;;1.12;100.00;99911.63;5094373;28;20204;-74
2023/12/18 08:37:37;;;;;;;11.97;9.10;;;;;;;1.10;100.00;99913.50;5094614;28;20206;-74
2023/12/18 08:40:03;;;;;;;11.07;8.90;;;;;;;1.07;100.00;99911.94;5094448;28;20227;-75
2023/12/18 08:42:30;;;;;;;11.73;8.93;;;;;;;1.09;100.00;99906.59;5094364;28;20243;-74
2023/12/18 08:44:56;;;;;;;15.37;9.50;;;;;;;1.17;100.00;99905.06;5093898;28;20691;-74
2023/12/18 08:47:23;;;;;;;12.43;8.93;;;;;;;1.21;100.00;99901.25;5093922;28;20212;-74
2023/12/18 08:49:49;;;;;;;13.07;9.03;;;;;;;1.31;100.00;99917.13;5094276;28;20805;-74
2023/12/18 08:52:16;;;;;;;13.30;9.20;;;;;;;1.33;100.00;99912.59;5093773;28;20222;-74
2023/12/18 08:54:42;;;;;;;14.33;9.00;;;;;;;1.37;100.00;99906.19;5094117;28;20207;-74
2023/12/18 08:57:08;;;;;;;10.63;8.50;;;;;;;1.36;100.00;99902.75;5093821;28;20212;-74
2023/12/18 08:59:35;;;;;;;11.33;8.37;;;;;;;1.45;100.00;99909.06;5093532;28;20230;-74
2023/12/18 09:02:01;;;;;;;11.07;8.47;;;;;;;1.55;100.00;99920.50;5093765;28;20210;-74
2023/12/18 09:04:28;;;;;;;10.00;8.07;;;;;;;1.57;100.00;99919.44;5094011;28;20210;-74
2023/12/18 09:06:54;;;;;;;12.17;9.30;;;;;;;1.56;100.00;99917.78;5093710;28;20234;-74
2023/12/18 09:09:21;;;;;;;12.93;8.43;;;;;;;1.68;100.00;99913.38;5093409;28;20224;-72
2023/12/18 09:11:48;;;;;;;10.47;8.53;;;;;;;1.79;100.00;99908.97;5093330;28;20611;-72
2023/12/18 09:14:14;;;;;;;11.20;8.60;;;;;;;1.92;100.00;99914.94;5093801;28;20212;-72
2023/12/18 09:16:40;;;;;;;10.17;8.00;;;;;;;1.85;100.00;99912.91;5093622;28;20204;-72
2023/12/18 09:19:07;;;;;;;12.93;9.00;;;;;;;1.92;100.00;99908.84;5093379;28;20226;-72
2023/12/18 09:21:33;;;;;;;11.23;8.20;;;;;;;2.02;100.00;99901.91;5093515;28;20211;-72
2023/12/18 09:23:59;;;;;;;10.97;8.53;;;;;;;2.07;100.00;99899.78;5093258;28;20208;-72
2023/12/18 09:26:26;;;;;;;10.23;8.07;;;;;;;2.06;100.00;99900.72;5093220;28;20220;-72
2023/12/18 09:28:52;;;;;;;8.27;7.47;;;;;;;2.00;100.00;99898.59;5093040;28;20204;-72
2023/12/18 09:31:20;;;;;;;7.83;7.03;;;;;;;2.11;100.00;99903.81;5093063;28;20294;-72
2023/12/18 09:33:46;;;;;;;9.70;7.90;;;;;;;2.22;100.00;99886.25;5093600;28;20207;-72
2023/12/18 09:36:13;;;;;;;7.97;7.17;;;;;;;2.35;100.00;99883.50;5093355;28;20609;-72
2023/12/18 09:38:39;;;;;;;8.47;7.60;;;;;;;2.42;100.00;99879.44;5093434;28;20210;-72
2023/12/18 09:41:07;;;;;;;7.97;6.90;;;;;;;2.56;100.00;99874.72;5093444;28;20210;-72
2023/12/18 09:43:34;;;;;;;8.07;6.80;;;;;;;2.68;100.00;99879.00;5093177;28;20728;-74
2023/12/18 09:46:00;;;;;;;10.67;6.50;;;;;;;2.64;100.00;99879.34;5093135;28;20234;-73
2023/12/18 09:48:27;;;;;;;9.10;6.73;;;;;;;2.56;100.00;99873.88;5092977;28;20212;-74
2023/12/18 09:50:54;;;;;;;8.27;6.17;;;;;;;2.65;100.00;99868.72;5093214;28;20219;-72
2023/12/18 09:53:22;;;;;;;8.23;6.23;;;;;;;2.78;100.00;99873.81;5093213;28;20200;-72
2023/12/18 09:55:51;;;;;;;8.60;6.33;;;;;;;2.85;100.00;99873.16;5092997;28;20257;-72
2023/12/18 09:58:19;;;;;;;9.27;6.43;;;;;;;2.95;100.00;99868.00;5092768;28;20635;-72
2023/12/18 10:00:47;;;;;;;8.17;6.23;;;;;;;3.01;100.00;99873.59;5093555;28;20230;-72
2023/12/18 10:03:16;;;;;;;8.77;7.00;;;;;;;3.13;100.00;99876.97;5093218;28;20203;-73
2023/12/18 10:05:43;;;;;;;10.43;6.33;;;;;;;3.13;100.00;99874.34;5093222;28;20250;-73
2023/12/18 10:08:09;;;;;;;7.93;6.43;;;;;;;3.19;100.00;99865.94;5093056;28;20204;-74
2023/12/18 10:10:36;;;;;;;9.50;6.43;;;;;;;3.25;100.00;99876.78;5092733;28;20567;-72
2023/12/18 10:13:03;;;;;;;8.33;6.63;;;;;;;3.27;100.00;99866.16;5093008;28;20206;-72
2023/12/18 10:15:32;;;;;;;8.73;6.80;;;;;;;3.33;100.00;99863.00;5093853;28;20195;-73
2023/12/18 10:17:58;;;;;;;8.37;6.80;;;;;;;3.36;100.00;99868.00;5093023;28;20577;-73
2023/12/18 10:20:25;;;;;;;8.57;6.33;;;;;;;3.39;100.00;99858.06;5093021;28;20228;-73
2023/12/18 10:22:51;;;;;;;8.80;6.50;;;;;;;3.40;100.00;99851.00;5093055;28;20222;-72
2023/12/18 10:25:18;;;;;;;8.23;6.90;;;;;;;3.48;100.00;99846.75;5092758;28;20204;-74
2023/12/18 10:27:46;;;;;;;8.17;6.40;;;;;;;3.58;100.00;99841.56;5092798;28;20204;-73
2023/12/18 10:30:13;;;;;;;9.57;6.70;;;;;;;3.64;100.00;99838.38;5092564;28;20220;-73
2023/12/18 10:32:41;;;;;;;8.63;7.30;;;;;;;3.62;100.00;99830.63;5092484;28;20690;-73
2023/12/18 10:35:08;;;;;;;8.10;7.27;;;;;;;3.59;100.00;99828.28;5092400;28;20671;-73
2023/12/18 10:37:36;;;;;;;9.27;7.60;;;;;;;3.62;100.00;99830.63;5092611;28;20200;-73
2023/12/18 10:40:06;;;;;;;10.43;7.47;;;;;;;3.87;100.00;99827.53;5096196;28;20220;-73
2023/12/18 10:42:36;;;;;;;9.33;7.17;;;;;;;3.75;100.00;99825.97;5096325;28;20219;-73
2023/12/18 10:45:07;;;;;;;11.63;8.13;;;;;;;3.77;100.00;99815.31;5096611;28;20265;-73
2023/12/18 10:47:34;;;;;;;9.00;7.37;;;;;;;3.85;100.00;99812.84;5096338;28;20212;-73
2023/12/18 10:50:02;;;;;;;10.53;7.53;;;;;;;3.91;100.00;99814.94;5096012;28;20816;-73
2023/12/18 10:52:30;;;;;;;8.83;7.03;;;;;;;3.85;100.00;99813.66;5095945;28;20613;-73
2023/12/18 10:55:00;;;;;;;7.83;6.50;;;;;;;4.01;100.00;99805.25;5096368;28;20208;-73
2023/12/18 10:57:27;;;;;;;8.97;6.93;;;;;;;4.18;100.00;99810.72;5096077;28;20662;-73
2023/12/18 10:59:54;;;;;;;9.67;7.50;;;;;;;4.05;100.00;99810.13;5096409;28;20226;-73
2023/12/18 11:02:21;;;;;;;12.83;7.30;;;;;;;4.03;100.00;99806.78;5096006;28;20200;-73
2023/12/18 11:04:49;;;;;;;8.20;7.30;;;;;;;4.04;100.00;99805.84;5096098;28;20203;-73
2023/12/18 11:07:19;;;;;;;7.93;6.57;;;;;;;4.09;100.00;99797.53;5095683;28;20777;-73
2023/12/18 11:09:47;;;;;;;10.20;6.83;;;;;;;4.14;100.00;99797.94;5095459;28;20726;-73
2023/12/18 11:12:16;;;;;;;9.47;6.93;;;;;;;4.23;100.00;99802.41;5095131;28;20208;-73
2023/12/18 11:14:59;;;;;;;7.83;6.90;;;;;;;4.28;100.00;99793.13;5096246;28;20208;-73
2023/12/18 11:17:50;;;;;;;10.93;6.90;;;;;;;4.33;100.00;99792.69;5096022;28;20206;-73
2023/12/18 11:20:24;;;;;;;10.13;7.20;;;;;;;4.39;100.00;99779.00;5095829;28;20224;-73
2023/12/18 11:22:53;;;;;;;12.50;7.63;;;;;;;4.44;100.00;99777.59;5095513;28;20195;-73